createdAt,value
2023-02-16T00:00:18.989Z,32.30
2023-02-16T00:01:18.956Z,30.30
2023-02-16T00:02:19.008Z,40.30
2023-02-16T00:03:19.017Z,42.40
2023-02-16T00:04:18.947Z,50.90
2023-02-16T00:05:18.945Z,52.80
2023-02-16T00:06:18.973Z,39.70
2023-02-16T00:07:18.920Z,38.50
2023-02-16T00:08:18.915Z,35.90
2023-02-16T00:09:18.889Z,35.50
2023-02-16T00:10:18.897Z,29.70
2023-02-16T00:11:18.871Z,32.80
2023-02-16T00:12:18.835Z,35.10
2023-02-16T00:13:18.853Z,46.00
2023-02-16T00:14:18.828Z,53.10
2023-02-16T00:15:18.900Z,64.30
2023-02-16T00:16:18.907Z,49.20
2023-02-16T00:17:18.844Z,43.70
2023-02-16T00:18:18.808Z,36.90
2023-02-16T00:19:18.825Z,42.50
2023-02-16T00:20:18.767Z,45.40
2023-02-16T00:21:18.824Z,46.50
2023-02-16T00:22:18.825Z,44.00
2023-02-16T00:23:18.765Z,45.20
2023-02-16T00:24:18.751Z,45.40
2023-02-16T00:25:18.782Z,45.20
2023-02-16T00:26:18.791Z,40.00
2023-02-16T00:27:18.707Z,33.90
2023-02-16T00:28:18.699Z,39.00
2023-02-16T00:29:18.690Z,41.80
2023-02-16T00:30:18.767Z,57.80
2023-02-16T00:31:18.864Z,47.70
2023-02-16T00:32:18.777Z,44.80
2023-02-16T00:33:18.660Z,37.80
2023-02-16T00:34:18.620Z,38.30
2023-02-16T00:35:18.612Z,53.10
2023-02-16T00:36:18.925Z,35.80
2023-02-16T00:37:18.647Z,37.10
2023-02-16T00:38:18.629Z,36.80
2023-02-16T00:39:18.607Z,39.90
2023-02-16T00:40:18.616Z,44.90
2023-02-16T00:41:18.572Z,47.60
2023-02-16T00:42:18.560Z,45.80
2023-02-16T00:43:18.560Z,48.10
2023-02-16T00:44:18.573Z,52.20
2023-02-16T00:45:18.538Z,59.70
2023-02-16T00:46:18.602Z,44.30
2023-02-16T00:47:18.564Z,40.70
2023-02-16T00:48:18.562Z,41.00
2023-02-16T00:49:18.530Z,42.30
2023-02-16T00:50:18.458Z,46.50
2023-02-16T00:51:25.873Z,68.80
2023-02-16T00:52:18.527Z,61.20
2023-02-16T00:53:18.455Z,70.50
2023-02-16T00:54:18.486Z,66.10
2023-02-16T00:55:18.440Z,68.80
2023-02-16T00:56:18.423Z,64.80
2023-02-16T00:57:18.436Z,68.80
2023-02-16T00:58:18.450Z,66.50
2023-02-16T00:59:18.387Z,71.50
2023-02-16T01:00:18.384Z,71.30
2023-02-16T01:01:18.427Z,66.90
2023-02-16T01:02:18.375Z,68.20
2023-02-16T01:03:18.350Z,70.90
2023-02-16T01:04:18.376Z,67.40
2023-02-16T01:05:18.338Z,68.70
2023-02-16T01:06:18.320Z,69.30
2023-02-16T01:07:18.331Z,69.10
2023-02-16T01:08:18.328Z,71.30
2023-02-16T01:09:18.296Z,69.40
2023-02-16T01:10:18.283Z,65.20
2023-02-16T01:11:18.297Z,62.80
2023-02-16T01:12:18.326Z,62.40
2023-02-16T01:13:18.290Z,61.30
2023-02-16T01:14:18.280Z,61.70
2023-02-16T01:15:18.264Z,62.80
2023-02-16T01:16:18.254Z,60.30
2023-02-16T01:17:18.259Z,58.70
2023-02-16T01:18:18.198Z,62.30
2023-02-16T01:19:18.530Z,57.60
2023-02-16T01:20:18.188Z,57.70
2023-02-16T01:21:18.185Z,57.70
2023-02-16T01:22:18.177Z,59.20
2023-02-16T01:23:18.183Z,56.60
2023-02-16T01:24:18.144Z,56.60
2023-02-16T01:25:18.150Z,52.70
2023-02-16T01:26:18.189Z,55.80
2023-02-16T01:27:18.136Z,55.60
2023-02-16T01:28:18.087Z,58.30
2023-02-16T01:29:18.105Z,57.20
2023-02-16T01:30:18.204Z,54.50
2023-02-16T01:31:18.184Z,55.70
2023-02-16T01:32:18.184Z,56.90
2023-02-16T01:33:18.079Z,56.80
2023-02-16T01:34:18.039Z,51.50
2023-02-16T01:35:18.358Z,51.10
2023-02-16T01:36:18.071Z,50.30
2023-02-16T01:37:18.039Z,54.50
2023-02-16T01:38:18.731Z,55.80
2023-02-16T01:39:18.018Z,54.20
2023-02-16T01:40:17.980Z,52.80
2023-02-16T01:41:18.013Z,53.20
2023-02-16T01:42:17.991Z,56.30
2023-02-16T01:43:17.970Z,60.00
2023-02-16T01:44:17.975Z,50.70
2023-02-16T01:45:17.924Z,55.20
2023-02-16T01:46:17.993Z,54.70
2023-02-16T01:47:17.965Z,55.20
2023-02-16T01:48:17.895Z,53.40
2023-02-16T01:49:17.901Z,51.60
2023-02-16T01:50:17.885Z,51.50
2023-02-16T01:51:17.884Z,52.80
2023-02-16T01:52:17.868Z,56.40
2023-02-16T01:53:18.046Z,54.10
2023-02-16T01:54:17.835Z,53.60
2023-02-16T01:55:17.862Z,64.20
2023-02-16T01:56:18.174Z,53.80
2023-02-16T01:57:17.801Z,53.90
2023-02-16T01:58:17.823Z,51.80
2023-02-16T01:59:17.848Z,51.20
2023-02-16T02:00:17.810Z,51.90
2023-02-16T02:01:17.805Z,50.50
2023-02-16T02:02:17.755Z,54.80
2023-02-16T02:03:17.750Z,51.30
2023-02-16T02:04:17.802Z,51.30
2023-02-16T02:05:17.816Z,51.70
2023-02-16T02:06:17.737Z,54.60
2023-02-16T02:07:17.717Z,54.70
2023-02-16T02:08:17.771Z,52.30
2023-02-16T02:09:17.708Z,50.10
2023-02-16T02:10:17.746Z,52.00
2023-02-16T02:11:17.688Z,50.40
2023-02-16T02:12:17.676Z,55.30
2023-02-16T02:13:17.739Z,51.00
2023-02-16T02:14:17.652Z,50.00
2023-02-16T02:15:17.637Z,50.10
2023-02-16T02:16:17.668Z,49.90
2023-02-16T02:17:17.616Z,52.10
2023-02-16T02:18:17.589Z,51.20
2023-02-16T02:19:17.613Z,51.00
2023-02-16T02:20:17.587Z,49.20
2023-02-16T02:21:17.599Z,56.30
2023-02-16T02:22:17.584Z,51.60
2023-02-16T02:23:17.586Z,50.80
2023-02-16T02:24:17.593Z,51.60
2023-02-16T02:25:17.552Z,50.30
2023-02-16T02:26:17.582Z,54.70
2023-02-16T02:27:17.586Z,50.00
2023-02-16T02:28:17.523Z,49.90
2023-02-16T02:29:17.493Z,50.10
2023-02-16T02:30:17.530Z,49.90
2023-02-16T02:31:17.611Z,50.80
2023-02-16T02:32:17.495Z,53.30
2023-02-16T02:33:17.507Z,53.40
2023-02-16T02:34:17.438Z,53.50
2023-02-16T02:35:17.441Z,48.70
2023-02-16T02:36:17.392Z,48.00
2023-02-16T02:37:17.386Z,48.80
2023-02-16T02:38:17.442Z,52.40
2023-02-16T02:39:17.411Z,50.50
2023-02-16T02:40:17.398Z,52.30
2023-02-16T02:41:17.390Z,54.40
2023-02-16T02:42:17.380Z,49.90
2023-02-16T02:43:17.348Z,47.10
2023-02-16T02:44:17.361Z,50.40
2023-02-16T02:45:17.384Z,49.20
2023-02-16T02:46:17.413Z,49.90
2023-02-16T02:47:17.309Z,49.30
2023-02-16T02:48:17.285Z,48.90
2023-02-16T02:49:17.298Z,51.80
2023-02-16T02:50:17.321Z,50.40
2023-02-16T02:51:17.306Z,48.00
2023-02-16T02:52:17.231Z,46.80
2023-02-16T02:53:17.260Z,50.20
2023-02-16T02:54:17.229Z,51.00
2023-02-16T02:55:17.297Z,50.10
2023-02-16T02:56:17.237Z,53.80
2023-02-16T02:57:19.037Z,49.60
2023-02-16T02:58:17.205Z,49.60
2023-02-16T02:59:17.186Z,50.40
2023-02-16T03:00:17.156Z,53.30
2023-02-16T03:01:17.185Z,51.50
2023-02-16T03:02:17.223Z,51.60
2023-02-16T03:03:17.169Z,49.40
2023-02-16T03:04:17.174Z,52.30
2023-02-16T03:05:17.147Z,46.20
2023-02-16T03:06:17.107Z,51.60
2023-02-16T03:07:17.120Z,53.40
2023-02-16T03:08:17.114Z,47.00
2023-02-16T03:09:17.094Z,50.20
2023-02-16T03:10:17.085Z,51.60
2023-02-16T03:11:17.051Z,52.00
2023-02-16T03:12:17.039Z,49.10
2023-02-16T03:13:17.027Z,51.50
2023-02-16T03:14:17.069Z,50.30
2023-02-16T03:15:17.026Z,48.20
2023-02-16T03:16:17.082Z,49.40
2023-02-16T03:17:17.064Z,51.10
2023-02-16T03:18:16.961Z,50.60
2023-02-16T03:19:17.025Z,52.00
2023-02-16T03:20:16.962Z,51.00
2023-02-16T03:21:16.967Z,48.90
2023-02-16T03:22:17.012Z,50.30
2023-02-16T03:23:16.929Z,52.20
2023-02-16T03:24:16.906Z,52.30
2023-02-16T03:25:16.962Z,51.70
2023-02-16T03:26:16.916Z,52.50
2023-02-16T03:27:16.930Z,54.00
2023-02-16T03:28:16.859Z,54.60
2023-02-16T03:29:16.893Z,57.20
2023-02-16T03:30:17.142Z,54.50
2023-02-16T03:31:17.034Z,52.40
2023-02-16T03:32:16.951Z,50.30
2023-02-16T03:33:16.843Z,51.60
2023-02-16T03:34:16.829Z,49.90
2023-02-16T03:35:16.832Z,50.90
2023-02-16T03:36:16.789Z,56.00
2023-02-16T03:37:16.818Z,48.90
2023-02-16T03:38:16.815Z,47.20
2023-02-16T03:39:16.763Z,44.00
2023-02-16T03:40:16.794Z,43.70
2023-02-16T03:41:16.760Z,45.50
2023-02-16T03:42:16.740Z,47.70
2023-02-16T03:43:16.799Z,48.10
2023-02-16T03:44:16.729Z,47.60
2023-02-16T03:45:16.731Z,45.80
2023-02-16T03:46:16.776Z,47.70
2023-02-16T03:47:16.675Z,49.40
2023-02-16T03:48:16.716Z,44.30
2023-02-16T03:49:16.676Z,51.00
2023-02-16T03:50:16.644Z,48.80
2023-02-16T03:51:16.658Z,55.20
2023-02-16T03:52:16.688Z,52.10
2023-02-16T03:53:18.292Z,46.60
2023-02-16T03:54:16.659Z,50.70
2023-02-16T03:55:16.608Z,50.70
2023-02-16T03:56:16.614Z,44.50
2023-02-16T03:57:16.590Z,49.00
2023-02-16T03:58:16.613Z,44.60
2023-02-16T03:59:16.542Z,48.20
2023-02-16T04:00:16.580Z,44.60
2023-02-16T04:01:16.555Z,42.50
2023-02-16T04:02:16.636Z,51.50
2023-02-16T04:03:16.550Z,54.10
2023-02-16T04:04:16.542Z,46.10
2023-02-16T04:05:16.500Z,48.80
2023-02-16T04:06:16.494Z,55.60
2023-02-16T04:07:16.501Z,45.60
2023-02-16T04:08:16.539Z,44.00
2023-02-16T04:09:16.490Z,44.70
2023-02-16T04:10:16.459Z,50.70
2023-02-16T04:11:16.481Z,47.20
2023-02-16T04:12:16.428Z,52.30
2023-02-16T04:13:16.473Z,49.60
2023-02-16T04:14:16.440Z,45.90
2023-02-16T04:15:16.413Z,50.60
2023-02-16T04:16:16.461Z,51.40
2023-02-16T04:17:16.439Z,45.00
2023-02-16T04:18:16.433Z,50.40
2023-02-16T04:19:16.367Z,56.40
2023-02-16T04:20:16.361Z,57.60
2023-02-16T04:21:16.347Z,50.40
2023-02-16T04:22:16.340Z,48.20
2023-02-16T04:23:16.335Z,42.40
2023-02-16T04:24:16.358Z,39.90
2023-02-16T04:25:16.298Z,39.70
2023-02-16T04:26:16.291Z,41.10
2023-02-16T04:27:16.354Z,41.70
2023-02-16T04:28:16.284Z,38.40
2023-02-16T04:29:16.284Z,39.80
2023-02-16T04:30:16.361Z,38.10
2023-02-16T04:31:16.405Z,49.20
2023-02-16T04:32:16.281Z,48.70
2023-02-16T04:33:16.205Z,46.40
2023-02-16T04:34:16.258Z,54.90
2023-02-16T04:35:16.202Z,63.10
2023-02-16T04:36:16.206Z,62.60
2023-02-16T04:37:16.206Z,66.60
2023-02-16T04:38:16.164Z,56.70
2023-02-16T04:39:16.180Z,61.80
2023-02-16T04:40:16.192Z,54.00
2023-02-16T04:41:16.187Z,63.80
2023-02-16T04:42:16.142Z,55.40
2023-02-16T04:43:16.136Z,49.20
2023-02-16T04:44:16.139Z,49.30
2023-02-16T04:45:16.134Z,42.70
2023-02-16T04:46:16.172Z,53.60
2023-02-16T04:47:16.070Z,53.30
2023-02-16T04:48:16.088Z,52.50
2023-02-16T04:49:16.067Z,59.40
2023-02-16T04:50:16.148Z,65.70
2023-02-16T04:51:16.042Z,63.20
2023-02-16T04:52:16.075Z,54.50
2023-02-16T04:53:16.043Z,64.00
2023-02-16T04:54:16.120Z,56.50
2023-02-16T04:55:15.986Z,61.50
2023-02-16T04:56:16.033Z,60.00
2023-02-16T04:57:16.009Z,59.80
2023-02-16T04:58:16.033Z,62.10
2023-02-16T04:59:15.949Z,64.70
2023-02-16T05:00:16.022Z,63.20
2023-02-16T05:01:15.992Z,61.50
2023-02-16T05:02:15.958Z,62.00
2023-02-16T05:03:15.915Z,63.10
2023-02-16T05:04:15.977Z,55.00
2023-02-16T05:05:15.918Z,61.30
2023-02-16T05:06:15.917Z,58.00
2023-02-16T05:07:15.886Z,56.10
2023-02-16T05:08:15.893Z,59.00
2023-02-16T05:09:15.880Z,61.80
2023-02-16T05:10:15.902Z,59.10
2023-02-16T05:11:15.858Z,60.10
2023-02-16T05:12:15.829Z,60.70
2023-02-16T05:13:15.819Z,58.90
2023-02-16T05:14:15.862Z,58.90
2023-02-16T05:15:15.848Z,58.80
2023-02-16T05:16:15.892Z,57.50
2023-02-16T05:17:15.782Z,54.40
2023-02-16T05:18:15.788Z,61.80
2023-02-16T05:19:16.128Z,57.80
2023-02-16T05:20:15.799Z,56.50
2023-02-16T05:21:15.747Z,59.50
2023-02-16T05:22:15.766Z,57.50
2023-02-16T05:23:15.724Z,57.30
2023-02-16T05:24:15.695Z,56.20
2023-02-16T05:25:15.700Z,59.20
2023-02-16T05:26:15.717Z,58.30
2023-02-16T05:27:15.693Z,60.00
2023-02-16T05:28:15.737Z,61.80
2023-02-16T05:29:15.673Z,59.10
2023-02-16T05:30:15.726Z,62.90
2023-02-16T05:31:15.774Z,59.90
2023-02-16T05:32:15.683Z,61.90
2023-02-16T05:33:15.651Z,54.50
2023-02-16T05:34:15.637Z,55.90
2023-02-16T05:35:15.611Z,48.90
2023-02-16T05:36:15.620Z,55.10
2023-02-16T05:37:15.597Z,56.40
2023-02-16T05:38:15.663Z,54.60
2023-02-16T05:39:15.585Z,63.50
2023-02-16T05:40:15.577Z,59.00
2023-02-16T05:41:15.641Z,58.10
2023-02-16T05:42:15.581Z,57.10
2023-02-16T05:43:15.501Z,62.10
2023-02-16T05:44:15.565Z,60.40
2023-02-16T05:45:15.543Z,56.80
2023-02-16T05:46:15.551Z,56.70
2023-02-16T05:47:15.496Z,56.90
2023-02-16T05:48:15.501Z,62.20
2023-02-16T05:49:15.500Z,59.50
2023-02-16T05:50:15.477Z,63.30
2023-02-16T05:51:15.476Z,63.40
2023-02-16T05:52:15.466Z,60.00
2023-02-16T05:53:15.407Z,60.70
2023-02-16T05:54:15.422Z,58.80
2023-02-16T05:55:15.406Z,60.30
2023-02-16T05:56:15.410Z,62.20
2023-02-16T05:57:15.644Z,61.70
2023-02-16T05:58:15.402Z,62.50
2023-02-16T05:59:15.389Z,60.90
2023-02-16T06:00:15.389Z,64.40
2023-02-16T06:01:15.361Z,61.30
2023-02-16T06:02:15.374Z,61.20
2023-02-16T06:03:15.346Z,67.60
2023-02-16T06:04:15.321Z,60.90
2023-02-16T06:05:15.332Z,61.50
2023-02-16T06:06:15.344Z,60.80
2023-02-16T06:07:15.349Z,65.20
2023-02-16T06:08:15.281Z,61.50
2023-02-16T06:09:15.296Z,59.90
2023-02-16T06:10:15.249Z,64.80
2023-02-16T06:11:15.247Z,62.10
2023-02-16T06:12:15.290Z,61.20
2023-02-16T06:13:15.181Z,63.60
2023-02-16T06:14:15.185Z,58.80
2023-02-16T06:15:15.171Z,60.20
2023-02-16T06:16:15.195Z,58.20
2023-02-16T06:17:15.150Z,59.20
2023-02-16T06:18:15.196Z,60.50
2023-02-16T06:19:15.139Z,59.80
2023-02-16T06:20:15.108Z,57.90
2023-02-16T06:21:15.137Z,60.20
2023-02-16T06:22:15.094Z,57.00
2023-02-16T06:23:15.071Z,60.20
2023-02-16T06:24:15.087Z,63.60
2023-02-16T06:25:15.098Z,55.80
2023-02-16T06:26:15.053Z,54.90
2023-02-16T06:27:15.043Z,61.10
2023-02-16T06:28:15.032Z,62.00
2023-02-16T06:29:15.017Z,57.30
2023-02-16T06:30:15.289Z,60.00
2023-02-16T06:31:15.120Z,54.80
2023-02-16T06:32:15.173Z,58.00
2023-02-16T06:33:14.999Z,63.10
2023-02-16T06:34:14.979Z,64.00
2023-02-16T06:35:14.998Z,60.50
2023-02-16T06:36:14.990Z,62.20
2023-02-16T06:37:14.967Z,63.80
2023-02-16T06:38:14.946Z,62.40
2023-02-16T06:39:14.930Z,65.30
2023-02-16T06:40:14.917Z,61.30
2023-02-16T06:41:14.928Z,59.30
2023-02-16T06:42:14.963Z,60.50
2023-02-16T06:43:14.901Z,60.20
2023-02-16T06:44:14.929Z,58.50
2023-02-16T06:45:14.847Z,62.30
2023-02-16T06:46:14.868Z,59.40
2023-02-16T06:47:14.933Z,66.50
2023-02-16T06:48:14.826Z,61.10
2023-02-16T06:49:14.805Z,66.40
2023-02-16T06:50:15.098Z,61.60
2023-02-16T06:51:14.823Z,63.90
2023-02-16T06:52:15.093Z,57.40
2023-02-16T06:53:14.830Z,64.20
2023-02-16T06:54:14.828Z,62.70
2023-02-16T06:55:14.815Z,63.90
2023-02-16T06:56:14.768Z,62.80
2023-02-16T06:57:14.929Z,60.00
2023-02-16T06:58:14.742Z,59.10
2023-02-16T06:59:14.774Z,64.60
2023-02-16T07:00:14.716Z,59.60
2023-02-16T07:01:14.787Z,61.20
2023-02-16T07:02:14.729Z,62.20
2023-02-16T07:03:14.740Z,59.80
2023-02-16T07:04:14.752Z,55.50
2023-02-16T07:05:14.730Z,60.10
2023-02-16T07:06:14.650Z,58.90
2023-02-16T07:07:14.716Z,54.50
2023-02-16T07:08:14.677Z,61.20
2023-02-16T07:09:14.638Z,56.20
2023-02-16T07:10:14.618Z,55.30
2023-02-16T07:11:14.589Z,60.30
2023-02-16T07:12:14.795Z,54.40
2023-02-16T07:13:14.626Z,55.50
2023-02-16T07:14:14.596Z,54.20
2023-02-16T07:15:14.552Z,54.80
2023-02-16T07:16:14.714Z,53.20
2023-02-16T07:17:14.558Z,55.50
2023-02-16T07:18:14.547Z,55.30
2023-02-16T07:19:14.534Z,55.00
2023-02-16T07:20:14.586Z,52.50
2023-02-16T07:21:14.557Z,55.20
2023-02-16T07:22:14.529Z,54.20
2023-02-16T07:23:14.516Z,52.20
2023-02-16T07:24:14.471Z,54.00
2023-02-16T07:25:14.487Z,52.60
2023-02-16T07:26:14.548Z,54.00
2023-02-16T07:27:14.470Z,50.10
2023-02-16T07:28:14.467Z,56.10
2023-02-16T07:29:14.412Z,56.70
2023-02-16T07:30:14.500Z,55.40
2023-02-16T07:31:14.546Z,60.00
2023-02-16T07:32:14.453Z,55.30
2023-02-16T07:33:14.432Z,52.90
2023-02-16T07:34:14.350Z,60.40
2023-02-16T07:35:14.378Z,72.20
2023-02-16T07:36:14.379Z,67.00
2023-02-16T07:37:14.351Z,66.70
2023-02-16T07:38:14.355Z,65.80
2023-02-16T07:39:14.322Z,65.50
2023-02-16T07:40:14.348Z,64.60
2023-02-16T07:41:14.339Z,59.60
2023-02-16T07:42:14.312Z,60.80
2023-02-16T07:43:14.301Z,59.30
2023-02-16T07:44:14.278Z,63.00
2023-02-16T07:45:14.282Z,61.40
2023-02-16T07:46:14.414Z,59.70
2023-02-16T07:47:14.401Z,57.80
2023-02-16T07:48:14.239Z,53.80
2023-02-16T07:49:14.223Z,56.40
2023-02-16T07:50:14.300Z,55.20
2023-02-16T07:51:14.214Z,53.50
2023-02-16T07:52:14.199Z,58.20
2023-02-16T07:53:14.227Z,58.40
2023-02-16T07:54:14.164Z,55.70
2023-02-16T07:55:14.169Z,54.20
2023-02-16T07:56:14.132Z,56.30
2023-02-16T07:57:14.131Z,52.30
2023-02-16T07:58:14.125Z,56.40
2023-02-16T07:59:14.153Z,51.60
2023-02-16T08:00:14.102Z,55.40
2023-02-16T08:01:15.838Z,54.60
2023-02-16T08:02:14.233Z,51.10
2023-02-16T08:03:14.247Z,52.40
2023-02-16T08:04:14.142Z,56.00
2023-02-16T08:05:14.091Z,54.00
2023-02-16T08:06:14.067Z,62.40
2023-02-16T08:07:14.058Z,54.50
2023-02-16T08:08:14.009Z,63.90
2023-02-16T08:09:14.005Z,50.70
2023-02-16T08:10:13.996Z,55.80
2023-02-16T08:11:14.031Z,48.90
2023-02-16T08:12:13.978Z,50.40
2023-02-16T08:13:13.998Z,48.20
2023-02-16T08:14:13.945Z,49.50
2023-02-16T08:15:13.973Z,45.20
2023-02-16T08:16:14.048Z,45.60
2023-02-16T08:17:14.015Z,45.50
2023-02-16T08:18:13.915Z,46.90
2023-02-16T08:19:13.956Z,45.40
2023-02-16T08:20:13.881Z,46.00
2023-02-16T08:21:13.919Z,48.20
2023-02-16T08:22:13.866Z,48.60
2023-02-16T08:23:13.930Z,50.00
2023-02-16T08:24:13.884Z,42.20
2023-02-16T08:25:13.925Z,45.00
2023-02-16T08:26:13.863Z,44.90
2023-02-16T08:27:13.910Z,46.60
2023-02-16T08:28:13.977Z,47.30
2023-02-16T08:29:13.825Z,45.10
2023-02-16T08:30:13.946Z,47.10
2023-02-16T08:31:13.821Z,45.50
2023-02-16T08:32:13.888Z,46.10
2023-02-16T08:33:13.840Z,42.60
2023-02-16T08:34:13.832Z,42.90
2023-02-16T08:35:13.773Z,43.10
2023-02-16T08:36:13.750Z,41.20
2023-02-16T08:37:13.795Z,47.50
2023-02-16T08:38:13.701Z,47.10
2023-02-16T08:39:13.757Z,44.20
2023-02-16T08:40:13.746Z,44.90
2023-02-16T08:41:13.708Z,42.00
2023-02-16T08:42:13.706Z,46.60
2023-02-16T08:43:13.689Z,45.80
2023-02-16T08:44:13.791Z,48.40
2023-02-16T08:45:13.719Z,41.80
2023-02-16T08:46:13.809Z,44.70
2023-02-16T08:47:13.800Z,45.30
2023-02-16T08:48:13.651Z,50.50
2023-02-16T08:49:13.740Z,40.70
2023-02-16T08:50:13.778Z,44.60
2023-02-16T08:51:13.688Z,45.10
2023-02-16T08:52:13.621Z,41.10
2023-02-16T08:53:13.576Z,43.80
2023-02-16T08:54:13.566Z,43.40
2023-02-16T08:55:13.577Z,38.80
2023-02-16T08:56:13.542Z,40.10
2023-02-16T08:57:13.544Z,41.20
2023-02-16T08:58:13.540Z,41.60
2023-02-16T08:59:13.638Z,44.80
2023-02-16T09:00:13.613Z,37.90
2023-02-16T09:01:13.568Z,42.40
2023-02-16T09:02:13.569Z,37.30
2023-02-16T09:03:13.631Z,42.80
2023-02-16T09:04:13.545Z,41.80
2023-02-16T09:05:13.453Z,42.80
2023-02-16T09:06:13.483Z,39.10
2023-02-16T09:07:13.589Z,41.80
2023-02-16T09:08:13.420Z,41.30
2023-02-16T09:09:13.479Z,43.70
2023-02-16T09:10:13.421Z,42.50
2023-02-16T09:11:13.518Z,46.40
2023-02-16T09:12:13.364Z,43.20
2023-02-16T09:13:13.442Z,42.30
2023-02-16T09:14:13.405Z,41.30
2023-02-16T09:15:13.356Z,39.80
2023-02-16T09:16:13.504Z,42.80
2023-02-16T09:17:13.401Z,41.90
2023-02-16T09:18:13.392Z,43.40
2023-02-16T09:19:13.310Z,40.90
2023-02-16T09:20:13.324Z,43.60
2023-02-16T09:21:13.338Z,42.00
2023-02-16T09:22:13.314Z,43.00
2023-02-16T09:23:13.349Z,42.70
2023-02-16T09:24:13.275Z,43.00
2023-02-16T09:25:13.307Z,42.70
2023-02-16T09:26:13.290Z,41.70
2023-02-16T09:27:13.324Z,40.90
2023-02-16T09:28:13.238Z,42.20
2023-02-16T09:29:13.237Z,44.60
2023-02-16T09:30:13.256Z,42.50
2023-02-16T09:31:13.369Z,38.50
2023-02-16T09:32:13.378Z,41.50
2023-02-16T09:33:13.191Z,38.00
2023-02-16T09:34:13.152Z,40.60
2023-02-16T09:35:13.220Z,37.50
2023-02-16T09:36:13.153Z,37.50
2023-02-16T09:37:13.182Z,37.30
2023-02-16T09:38:13.132Z,33.50
2023-02-16T09:39:13.101Z,37.70
2023-02-16T09:40:13.115Z,35.80
2023-02-16T09:41:13.133Z,39.20
2023-02-16T09:42:13.252Z,35.30
2023-02-16T09:43:13.248Z,37.60
2023-02-16T09:44:13.252Z,38.50
2023-02-16T09:45:13.203Z,37.20
2023-02-16T09:46:13.116Z,36.90
2023-02-16T09:47:13.145Z,36.80
2023-02-16T09:48:13.099Z,33.70
2023-02-16T09:49:13.075Z,34.80
2023-02-16T09:50:13.031Z,35.10
2023-02-16T09:51:13.784Z,33.30
2023-02-16T09:52:12.984Z,35.80
2023-02-16T09:53:12.986Z,35.90
2023-02-16T09:54:12.978Z,35.40
2023-02-16T09:55:13.143Z,35.60
2023-02-16T09:56:12.954Z,37.00
2023-02-16T09:57:12.912Z,36.00
2023-02-16T09:58:12.915Z,32.90
2023-02-16T09:59:12.962Z,32.90
2023-02-16T10:00:12.929Z,34.20
2023-02-16T10:01:12.949Z,37.90
2023-02-16T10:02:12.909Z,34.10
2023-02-16T10:03:12.933Z,33.30
2023-02-16T10:04:12.884Z,34.20
2023-02-16T10:05:12.856Z,35.30
2023-02-16T10:06:12.827Z,37.60
2023-02-16T10:07:12.835Z,36.20
2023-02-16T10:08:12.937Z,36.30
2023-02-16T10:09:12.828Z,34.60
2023-02-16T10:10:12.808Z,34.50
2023-02-16T10:11:12.797Z,36.60
2023-02-16T10:12:12.786Z,37.20
2023-02-16T10:13:12.811Z,38.40
2023-02-16T10:14:12.773Z,35.60
2023-02-16T10:15:12.781Z,36.10
2023-02-16T10:16:12.847Z,34.20
2023-02-16T10:17:12.719Z,34.60
2023-02-16T10:18:12.879Z,35.50
2023-02-16T10:19:12.817Z,36.90
2023-02-16T10:20:12.725Z,35.60
2023-02-16T10:21:12.835Z,36.50
2023-02-16T10:22:12.750Z,36.70
2023-02-16T10:23:12.778Z,36.40
2023-02-16T10:24:12.851Z,38.70
2023-02-16T10:25:12.759Z,36.50
2023-02-16T10:26:12.673Z,37.40
2023-02-16T10:27:12.661Z,35.20
2023-02-16T10:28:12.653Z,37.60
2023-02-16T10:29:12.620Z,38.90
2023-02-16T10:30:12.647Z,36.70
2023-02-16T10:31:12.704Z,38.20
2023-02-16T10:32:12.662Z,36.60
2023-02-16T10:33:12.614Z,37.50
2023-02-16T10:34:12.621Z,39.60
2023-02-16T10:35:12.686Z,36.90
2023-02-16T10:36:12.493Z,38.50
2023-02-16T10:37:12.589Z,39.70
2023-02-16T10:38:12.511Z,38.30
2023-02-16T10:39:12.571Z,40.90
2023-02-16T10:40:12.535Z,38.20
2023-02-16T10:41:12.526Z,37.40
2023-02-16T10:42:12.686Z,38.10
2023-02-16T10:43:12.449Z,36.60
2023-02-16T10:44:12.457Z,39.60
2023-02-16T10:45:12.424Z,36.10
2023-02-16T10:46:12.490Z,35.40
2023-02-16T10:47:12.479Z,36.20
2023-02-16T10:48:12.409Z,35.80
2023-02-16T10:49:12.400Z,37.40
2023-02-16T10:50:12.630Z,40.50
2023-02-16T10:51:12.411Z,38.20
2023-02-16T10:52:12.419Z,38.50
2023-02-16T10:53:12.403Z,41.10
2023-02-16T10:54:12.343Z,48.20
2023-02-16T10:55:12.354Z,47.70
2023-02-16T10:56:12.361Z,41.90
2023-02-16T10:57:12.378Z,38.90
2023-02-16T10:58:12.356Z,40.60
2023-02-16T10:59:12.387Z,43.30
2023-02-16T11:00:12.358Z,41.40
2023-02-16T11:01:12.343Z,40.20
2023-02-16T11:02:12.248Z,37.10
2023-02-16T11:03:12.381Z,48.70
2023-02-16T11:04:12.446Z,37.20
2023-02-16T11:05:12.281Z,38.90
2023-02-16T11:06:12.355Z,37.10
2023-02-16T11:07:12.323Z,34.80
2023-02-16T11:08:12.387Z,38.30
2023-02-16T11:09:12.196Z,35.10
2023-02-16T11:10:12.287Z,36.10
2023-02-16T11:11:12.266Z,39.40
2023-02-16T11:12:12.213Z,43.70
2023-02-16T11:13:12.171Z,38.50
2023-02-16T11:14:12.195Z,35.80
2023-02-16T11:15:12.169Z,39.10
2023-02-16T11:16:12.228Z,36.70
2023-02-16T11:17:12.159Z,36.00
2023-02-16T11:18:12.305Z,39.40
2023-02-16T11:19:12.183Z,39.70
2023-02-16T11:20:12.446Z,39.00
2023-02-16T11:21:12.086Z,37.50
2023-02-16T11:22:12.088Z,37.00
2023-02-16T11:23:12.285Z,39.00
2023-02-16T11:24:12.288Z,37.60
2023-02-16T11:25:12.051Z,36.10
2023-02-16T11:26:12.247Z,37.10
2023-02-16T11:27:12.133Z,45.40
2023-02-16T11:28:12.042Z,41.40
2023-02-16T11:29:12.066Z,35.50
2023-02-16T11:30:12.139Z,37.80
2023-02-16T11:31:12.237Z,43.30
2023-02-16T11:32:12.027Z,37.90
2023-02-16T11:33:12.016Z,37.30
2023-02-16T11:34:12.252Z,41.00
2023-02-16T11:35:12.196Z,44.30
2023-02-16T11:36:12.169Z,42.90
2023-02-16T11:37:12.043Z,34.70
2023-02-16T11:38:12.141Z,38.00
2023-02-16T11:39:12.054Z,38.50
2023-02-16T11:40:12.072Z,37.20
2023-02-16T11:41:11.954Z,37.80
2023-02-16T11:42:12.040Z,39.90
2023-02-16T11:43:11.958Z,41.40
2023-02-16T11:44:13.626Z,40.40
2023-02-16T11:45:12.170Z,39.30
2023-02-16T11:46:11.843Z,40.40
2023-02-16T11:47:12.249Z,40.90
2023-02-16T11:48:11.799Z,40.70
2023-02-16T11:49:12.000Z,40.00
2023-02-16T11:50:11.779Z,43.50
2023-02-16T11:51:11.842Z,40.60
2023-02-16T11:52:11.726Z,44.80
2023-02-16T11:53:11.874Z,42.10
2023-02-16T11:54:11.721Z,43.70
2023-02-16T11:55:11.890Z,42.80
2023-02-16T11:56:11.780Z,42.00
2023-02-16T11:57:11.889Z,46.10
2023-02-16T11:58:11.750Z,44.10
2023-02-16T11:59:11.865Z,46.90
2023-02-16T12:00:11.660Z,40.10
2023-02-16T12:01:11.732Z,44.60
2023-02-16T12:02:11.725Z,45.70
2023-02-16T12:03:11.656Z,45.70
2023-02-16T12:04:11.682Z,44.10
2023-02-16T12:05:11.621Z,44.60
2023-02-16T12:06:11.637Z,51.80
2023-02-16T12:07:11.542Z,43.10
2023-02-16T12:08:11.657Z,41.70
2023-02-16T12:09:11.552Z,46.60
2023-02-16T12:10:11.627Z,45.50
2023-02-16T12:11:11.590Z,41.40
2023-02-16T12:12:11.488Z,43.20
2023-02-16T12:13:11.492Z,44.60
2023-02-16T12:14:11.481Z,45.20
2023-02-16T12:15:11.487Z,43.80
2023-02-16T12:16:11.808Z,44.80
2023-02-16T12:17:11.461Z,44.70
2023-02-16T12:18:11.457Z,42.30
2023-02-16T12:19:11.518Z,47.60
2023-02-16T12:20:11.408Z,47.50
2023-02-16T12:21:11.441Z,41.90
2023-02-16T12:22:11.386Z,47.20
2023-02-16T12:23:11.369Z,47.90
2023-02-16T12:24:13.767Z,45.00
2023-02-16T12:25:11.410Z,48.20
2023-02-16T12:26:11.363Z,44.10
2023-02-16T12:27:11.350Z,45.20
2023-02-16T12:28:13.287Z,49.40
2023-02-16T12:29:11.308Z,52.00
2023-02-16T12:30:11.440Z,47.70
2023-02-16T12:31:11.443Z,49.70
2023-02-16T12:32:11.292Z,48.90
2023-02-16T12:33:11.373Z,45.10
2023-02-16T12:34:11.319Z,50.20
2023-02-16T12:35:11.233Z,45.70
2023-02-16T12:36:11.321Z,46.10
2023-02-16T12:37:11.228Z,45.80
2023-02-16T12:38:11.266Z,45.50
2023-02-16T12:39:11.232Z,43.50
2023-02-16T12:40:11.258Z,47.50
2023-02-16T12:41:11.221Z,47.30
2023-02-16T12:42:11.178Z,44.70
2023-02-16T12:43:11.382Z,43.90
2023-02-16T12:44:11.180Z,44.10
2023-02-16T12:45:11.181Z,45.80
2023-02-16T12:46:11.129Z,46.10
2023-02-16T12:47:11.110Z,45.60
2023-02-16T12:48:11.096Z,47.30
2023-02-16T12:49:11.149Z,46.20
2023-02-16T12:50:11.180Z,45.50
2023-02-16T12:51:11.179Z,44.80
2023-02-16T12:52:11.069Z,41.40